sensor_id;sensor_type;location;lat;lon;timestamp;P1;durP1;ratioP1;P2;durP2;ratioP2
12650;SDS011;6390;49.400;8.670;2022-10-10T00:00:40;2.78;;;1.80;;
12650;SDS011;6390;49.400;8.670;2022-10-10T00:03:06;2.00;;;1.67;;
12650;SDS011;6390;49.400;8.670;2022-10-10T00:05:33;2.97;;;1.85;;
12650;SDS011;6390;49.400;8.670;2022-10-10T00:08:01;2.08;;;1.75;;
12650;SDS011;6390;49.400;8.670;2022-10-10T00:10:27;3.08;;;1.80;;
12650;SDS011;6390;49.400;8.670;2022-10-10T00:12:53;1.92;;;1.75;;
12650;SDS011;6390;49.400;8.670;2022-10-10T00:15:19;1.60;;;1.50;;
12650;SDS011;6390;49.400;8.670;2022-10-10T00:17:46;3.10;;;1.85;;
12650;SDS011;6390;49.400;8.670;2022-10-10T00:20:13;2.55;;;2.00;;
12650;SDS011;6390;49.400;8.670;2022-10-10T00:22:41;3.30;;;1.80;;
12650;SDS011;6390;49.400;8.670;2022-10-10T00:25:07;1.70;;;1.60;;
12650;SDS011;6390;49.400;8.670;2022-10-10T00:27:34;2.10;;;1.58;;
12650;SDS011;6390;49.400;8.670;2022-10-10T00:30:01;1.92;;;1.80;;
12650;SDS011;6390;49.400;8.670;2022-10-10T00:32:29;2.53;;;1.60;;
12650;SDS011;6390;49.400;8.670;2022-10-10T00:34:55;1.88;;;1.67;;
12650;SDS011;6390;49.400;8.670;2022-10-10T00:37:21;2.63;;;1.75;;
12650;SDS011;6390;49.400;8.670;2022-10-10T00:39:47;3.25;;;1.50;;
12650;SDS011;6390;49.400;8.670;2022-10-10T00:42:14;1.77;;;1.60;;
12650;SDS011;6390;49.400;8.670;2022-10-10T00:44:42;2.00;;;1.63;;
12650;SDS011;6390;49.400;8.670;2022-10-10T00:47:10;3.47;;;1.40;;
12650;SDS011;6390;49.400;8.670;2022-10-10T00:49:38;2.63;;;1.70;;
12650;SDS011;6390;49.400;8.670;2022-10-10T00:52:08;3.20;;;1.80;;
12650;SDS011;6390;49.400;8.670;2022-10-10T00:54:35;1.75;;;1.38;;
12650;SDS011;6390;49.400;8.670;2022-10-10T00:57:03;3.75;;;1.45;;
12650;SDS011;6390;49.400;8.670;2022-10-10T00:59:38;1.85;;;1.45;;
12650;SDS011;6390;49.400;8.670;2022-10-10T01:02:06;2.22;;;1.30;;
12650;SDS011;6390;49.400;8.670;2022-10-10T01:04:34;1.50;;;1.40;;
12650;SDS011;6390;49.400;8.670;2022-10-10T01:07:07;1.67;;;1.58;;
12650;SDS011;6390;49.400;8.670;2022-10-10T01:09:39;2.25;;;1.40;;
12650;SDS011;6390;49.400;8.670;2022-10-10T01:15:19;1.98;;;1.45;;
12650;SDS011;6390;49.400;8.670;2022-10-10T01:23:57;1.50;;;1.40;;
12650;SDS011;6390;49.400;8.670;2022-10-10T01:26:52;1.75;;;1.60;;
12650;SDS011;6390;49.400;8.670;2022-10-10T01:29:52;1.50;;;1.40;;
12650;SDS011;6390;49.400;8.670;2022-10-10T01:38:11;1.55;;;1.40;;
12650;SDS011;6390;49.400;8.670;2022-10-10T01:41:05;3.28;;;1.63;;
12650;SDS011;6390;49.400;8.670;2022-10-10T01:43:39;1.95;;;1.30;;
12650;SDS011;6390;49.400;8.670;2022-10-10T01:46:10;1.73;;;1.38;;
12650;SDS011;6390;49.400;8.670;2022-10-10T01:48:39;1.73;;;1.40;;
12650;SDS011;6390;49.400;8.670;2022-10-10T01:51:23;1.83;;;1.50;;
12650;SDS011;6390;49.400;8.670;2022-10-10T01:57:55;1.70;;;1.50;;
12650;SDS011;6390;49.400;8.670;2022-10-10T02:00:06;2.35;;;1.50;;
12650;SDS011;6390;49.400;8.670;2022-10-10T02:02:38;1.55;;;1.40;;
12650;SDS011;6390;49.400;8.670;2022-10-10T02:05:28;1.60;;;1.50;;
12650;SDS011;6390;49.400;8.670;2022-10-10T02:08:11;1.60;;;1.50;;
12650;SDS011;6390;49.400;8.670;2022-10-10T02:10:42;2.15;;;1.40;;
12650;SDS011;6390;49.400;8.670;2022-10-10T02:13:14;2.22;;;1.83;;
12650;SDS011;6390;49.400;8.670;2022-10-10T02:15:42;1.55;;;1.45;;
12650;SDS011;6390;49.400;8.670;2022-10-10T02:18:14;1.83;;;1.42;;
12650;SDS011;6390;49.400;8.670;2022-10-10T02:20:42;1.50;;;1.40;;
12650;SDS011;6390;49.400;8.670;2022-10-10T02:23:09;1.70;;;1.40;;
12650;SDS011;6390;49.400;8.670;2022-10-10T02:25:38;1.65;;;1.55;;
12650;SDS011;6390;49.400;8.670;2022-10-10T02:28:14;2.45;;;1.88;;
12650;SDS011;6390;49.400;8.670;2022-10-10T02:30:46;1.67;;;1.48;;
12650;SDS011;6390;49.400;8.670;2022-10-10T02:33:15;2.35;;;2.10;;
12650;SDS011;6390;49.400;8.670;2022-10-10T02:35:46;1.85;;;1.40;;
12650;SDS011;6390;49.400;8.670;2022-10-10T02:38:13;2.92;;;1.70;;
12650;SDS011;6390;49.400;8.670;2022-10-10T02:40:40;2.55;;;1.73;;
12650;SDS011;6390;49.400;8.670;2022-10-10T02:43:08;1.65;;;1.55;;
12650;SDS011;6390;49.400;8.670;2022-10-10T02:45:35;1.70;;;1.40;;
12650;SDS011;6390;49.400;8.670;2022-10-10T02:48:02;1.60;;;1.50;;
12650;SDS011;6390;49.400;8.670;2022-10-10T02:50:29;3.65;;;1.45;;
12650;SDS011;6390;49.400;8.670;2022-10-10T02:52:56;1.70;;;1.60;;
12650;SDS011;6390;49.400;8.670;2022-10-10T02:55:22;1.42;;;1.27;;
12650;SDS011;6390;49.400;8.670;2022-10-10T02:57:49;1.33;;;1.23;;
12650;SDS011;6390;49.400;8.670;2022-10-10T03:00:15;2.40;;;1.50;;
12650;SDS011;6390;49.400;8.670;2022-10-10T03:02:42;1.67;;;1.50;;
12650;SDS011;6390;49.400;8.670;2022-10-10T03:05:10;1.60;;;1.50;;
12650;SDS011;6390;49.400;8.670;2022-10-10T03:07:36;1.50;;;1.40;;
12650;SDS011;6390;49.400;8.670;2022-10-10T03:10:03;1.55;;;1.45;;
12650;SDS011;6390;49.400;8.670;2022-10-10T03:12:33;1.60;;;1.48;;
12650;SDS011;6390;49.400;8.670;2022-10-10T03:14:59;1.33;;;1.23;;
12650;SDS011;6390;49.400;8.670;2022-10-10T03:17:25;2.10;;;1.63;;
12650;SDS011;6390;49.400;8.670;2022-10-10T03:19:51;2.17;;;1.73;;
12650;SDS011;6390;49.400;8.670;2022-10-10T03:22:17;2.00;;;1.60;;
12650;SDS011;6390;49.400;8.670;2022-10-10T03:24:44;1.70;;;1.60;;
12650;SDS011;6390;49.400;8.670;2022-10-10T03:27:10;1.70;;;1.60;;
12650;SDS011;6390;49.400;8.670;2022-10-10T03:29:36;4.07;;;1.70;;
12650;SDS011;6390;49.400;8.670;2022-10-10T03:32:02;1.60;;;1.50;;
12650;SDS011;6390;49.400;8.670;2022-10-10T03:34:28;2.53;;;1.98;;
12650;SDS011;6390;49.400;8.670;2022-10-10T03:36:54;2.22;;;1.70;;
12650;SDS011;6390;49.400;8.670;2022-10-10T03:39:20;2.80;;;1.60;;
12650;SDS011;6390;49.400;8.670;2022-10-10T03:41:46;1.92;;;1.83;;
12650;SDS011;6390;49.400;8.670;2022-10-10T03:44:14;2.15;;;1.80;;
12650;SDS011;6390;49.400;8.670;2022-10-10T03:46:40;2.05;;;1.80;;
12650;SDS011;6390;49.400;8.670;2022-10-10T03:49:06;2.53;;;1.92;;
12650;SDS011;6390;49.400;8.670;2022-10-10T03:51:32;2.38;;;2.17;;
12650;SDS011;6390;49.400;8.670;2022-10-10T03:53:58;2.15;;;1.70;;
12650;SDS011;6390;49.400;8.670;2022-10-10T03:56:24;2.35;;;1.60;;
12650;SDS011;6390;49.400;8.670;2022-10-10T03:58:51;2.03;;;1.83;;
12650;SDS011;6390;49.400;8.670;2022-10-10T04:01:17;2.70;;;1.77;;
12650;SDS011;6390;49.400;8.670;2022-10-10T04:03:43;2.38;;;2.00;;
12650;SDS011;6390;49.400;8.670;2022-10-10T04:06:09;2.50;;;2.05;;
12650;SDS011;6390;49.400;8.670;2022-10-10T04:08:36;6.43;;;4.60;;
12650;SDS011;6390;49.400;8.670;2022-10-10T04:11:02;3.63;;;2.80;;
12650;SDS011;6390;49.400;8.670;2022-10-10T04:13:28;3.97;;;2.30;;
12650;SDS011;6390;49.400;8.670;2022-10-10T04:15:54;2.30;;;1.92;;
12650;SDS011;6390;49.400;8.670;2022-10-10T04:18:21;2.60;;;1.50;;
12650;SDS011;6390;49.400;8.670;2022-10-10T04:20:48;2.47;;;1.90;;
12650;SDS011;6390;49.400;8.670;2022-10-10T04:23:15;2.20;;;1.73;;
12650;SDS011;6390;49.400;8.670;2022-10-10T04:25:41;3.75;;;1.83;;
12650;SDS011;6390;49.400;8.670;2022-10-10T04:28:12;2.05;;;1.60;;
12650;SDS011;6390;49.400;8.670;2022-10-10T04:30:39;1.75;;;1.48;;
12650;SDS011;6390;49.400;8.670;2022-10-10T04:33:06;2.92;;;1.70;;
12650;SDS011;6390;49.400;8.670;2022-10-10T04:35:32;4.22;;;2.03;;
12650;SDS011;6390;49.400;8.670;2022-10-10T04:37:58;3.13;;;1.90;;
12650;SDS011;6390;49.400;8.670;2022-10-10T04:40:24;1.95;;;1.75;;
12650;SDS011;6390;49.400;8.670;2022-10-10T04:42:51;2.13;;;1.90;;
12650;SDS011;6390;49.400;8.670;2022-10-10T04:45:17;4.60;;;1.98;;
12650;SDS011;6390;49.400;8.670;2022-10-10T04:47:44;3.42;;;1.92;;
12650;SDS011;6390;49.400;8.670;2022-10-10T04:50:10;2.10;;;1.90;;
12650;SDS011;6390;49.400;8.670;2022-10-10T04:52:36;2.25;;;1.90;;
12650;SDS011;6390;49.400;8.670;2022-10-10T04:55:02;2.30;;;2.00;;
12650;SDS011;6390;49.400;8.670;2022-10-10T04:57:29;2.20;;;2.00;;
12650;SDS011;6390;49.400;8.670;2022-10-10T04:59:55;3.38;;;2.10;;
12650;SDS011;6390;49.400;8.670;2022-10-10T05:02:21;2.47;;;1.77;;
12650;SDS011;6390;49.400;8.670;2022-10-10T05:04:47;3.03;;;2.10;;
12650;SDS011;6390;49.400;8.670;2022-10-10T05:07:13;4.00;;;2.13;;
12650;SDS011;6390;49.400;8.670;2022-10-10T05:09:39;3.72;;;1.88;;
12650;SDS011;6390;49.400;8.670;2022-10-10T05:12:05;3.83;;;2.00;;
12650;SDS011;6390;49.400;8.670;2022-10-10T05:14:31;3.20;;;2.42;;
12650;SDS011;6390;49.400;8.670;2022-10-10T05:16:58;5.28;;;2.80;;
12650;SDS011;6390;49.400;8.670;2022-10-10T05:19:24;3.80;;;2.20;;
12650;SDS011;6390;49.400;8.670;2022-10-10T05:21:50;2.28;;;2.08;;
12650;SDS011;6390;49.400;8.670;2022-10-10T05:24:16;5.13;;;2.30;;
12650;SDS011;6390;49.400;8.670;2022-10-10T05:26:42;4.35;;;2.08;;
12650;SDS011;6390;49.400;8.670;2022-10-10T05:29:08;15.23;;;3.35;;
12650;SDS011;6390;49.400;8.670;2022-10-10T05:31:34;6.22;;;2.30;;
12650;SDS011;6390;49.400;8.670;2022-10-10T05:34:00;6.07;;;2.97;;
12650;SDS011;6390;49.400;8.670;2022-10-10T05:36:27;6.93;;;2.08;;
12650;SDS011;6390;49.400;8.670;2022-10-10T05:38:53;6.75;;;2.40;;
12650;SDS011;6390;49.400;8.670;2022-10-10T05:41:19;2.60;;;2.00;;
12650;SDS011;6390;49.400;8.670;2022-10-10T05:43:45;3.70;;;2.30;;
12650;SDS011;6390;49.400;8.670;2022-10-10T05:46:11;2.75;;;2.22;;
12650;SDS011;6390;49.400;8.670;2022-10-10T05:48:38;6.35;;;2.13;;
12650;SDS011;6390;49.400;8.670;2022-10-10T05:51:04;3.13;;;2.20;;
12650;SDS011;6390;49.400;8.670;2022-10-10T05:53:31;2.45;;;2.25;;
12650;SDS011;6390;49.400;8.670;2022-10-10T05:55:59;4.43;;;2.03;;
12650;SDS011;6390;49.400;8.670;2022-10-10T05:58:26;7.18;;;2.13;;
12650;SDS011;6390;49.400;8.670;2022-10-10T06:00:52;4.50;;;2.40;;
12650;SDS011;6390;49.400;8.670;2022-10-10T06:03:18;6.28;;;2.25;;
12650;SDS011;6390;49.400;8.670;2022-10-10T06:05:45;5.75;;;2.60;;
12650;SDS011;6390;49.400;8.670;2022-10-10T06:08:14;4.97;;;2.67;;
12650;SDS011;6390;49.400;8.670;2022-10-10T06:10:41;5.43;;;2.80;;
12650;SDS011;6390;49.400;8.670;2022-10-10T06:13:10;5.22;;;2.45;;
12650;SDS011;6390;49.400;8.670;2022-10-10T06:15:39;8.88;;;2.65;;
12650;SDS011;6390;49.400;8.670;2022-10-10T06:18:05;2.85;;;2.58;;
12650;SDS011;6390;49.400;8.670;2022-10-10T06:20:38;8.95;;;2.78;;
12650;SDS011;6390;49.400;8.670;2022-10-10T06:23:05;5.90;;;3.03;;
12650;SDS011;6390;49.400;8.670;2022-10-10T06:25:33;6.30;;;2.80;;
12650;SDS011;6390;49.400;8.670;2022-10-10T06:28:00;3.05;;;2.30;;
12650;SDS011;6390;49.400;8.670;2022-10-10T06:30:26;5.43;;;2.40;;
12650;SDS011;6390;49.400;8.670;2022-10-10T06:32:52;4.47;;;2.85;;
12650;SDS011;6390;49.400;8.670;2022-10-10T06:35:18;5.38;;;2.60;;
12650;SDS011;6390;49.400;8.670;2022-10-10T06:37:45;2.83;;;2.53;;
12650;SDS011;6390;49.400;8.670;2022-10-10T06:40:11;5.22;;;2.58;;
12650;SDS011;6390;49.400;8.670;2022-10-10T06:42:37;8.52;;;2.92;;
12650;SDS011;6390;49.400;8.670;2022-10-10T06:45:03;4.95;;;2.35;;
12650;SDS011;6390;49.400;8.670;2022-10-10T06:47:30;4.18;;;2.63;;
12650;SDS011;6390;49.400;8.670;2022-10-10T06:49:56;3.72;;;2.70;;
12650;SDS011;6390;49.400;8.670;2022-10-10T06:52:22;2.65;;;2.45;;
12650;SDS011;6390;49.400;8.670;2022-10-10T06:54:49;4.07;;;2.90;;
12650;SDS011;6390;49.400;8.670;2022-10-10T06:57:15;4.78;;;2.58;;
12650;SDS011;6390;49.400;8.670;2022-10-10T06:59:41;4.82;;;2.60;;
12650;SDS011;6390;49.400;8.670;2022-10-10T07:02:10;4.47;;;2.67;;
12650;SDS011;6390;49.400;8.670;2022-10-10T07:04:38;3.15;;;2.42;;
12650;SDS011;6390;49.400;8.670;2022-10-10T07:07:04;4.00;;;2.28;;
12650;SDS011;6390;49.400;8.670;2022-10-10T07:09:30;4.22;;;2.50;;
12650;SDS011;6390;49.400;8.670;2022-10-10T07:11:56;2.67;;;2.42;;
12650;SDS011;6390;49.400;8.670;2022-10-10T07:14:22;3.55;;;2.67;;
12650;SDS011;6390;49.400;8.670;2022-10-10T07:16:48;2.53;;;2.10;;
12650;SDS011;6390;49.400;8.670;2022-10-10T07:19:14;2.72;;;2.50;;
12650;SDS011;6390;49.400;8.670;2022-10-10T07:21:40;3.03;;;2.33;;
12650;SDS011;6390;49.400;8.670;2022-10-10T07:24:06;3.17;;;2.33;;
12650;SDS011;6390;49.400;8.670;2022-10-10T07:26:33;3.03;;;2.53;;
12650;SDS011;6390;49.400;8.670;2022-10-10T07:29:02;3.47;;;2.38;;
12650;SDS011;6390;49.400;8.670;2022-10-10T07:31:29;3.60;;;2.65;;
12650;SDS011;6390;49.400;8.670;2022-10-10T07:33:56;4.00;;;2.35;;
12650;SDS011;6390;49.400;8.670;2022-10-10T07:36:22;2.40;;;2.17;;
12650;SDS011;6390;49.400;8.670;2022-10-10T07:38:49;2.88;;;2.50;;
12650;SDS011;6390;49.400;8.670;2022-10-10T07:41:16;3.67;;;2.25;;
12650;SDS011;6390;49.400;8.670;2022-10-10T07:43:44;3.83;;;2.65;;
12650;SDS011;6390;49.400;8.670;2022-10-10T07:46:17;2.63;;;2.30;;
12650;SDS011;6390;49.400;8.670;2022-10-10T07:48:44;2.60;;;2.28;;
12650;SDS011;6390;49.400;8.670;2022-10-10T07:51:11;3.15;;;2.70;;
12650;SDS011;6390;49.400;8.670;2022-10-10T07:53:37;4.55;;;2.63;;
12650;SDS011;6390;49.400;8.670;2022-10-10T07:56:05;4.85;;;2.65;;
12650;SDS011;6390;49.400;8.670;2022-10-10T07:58:33;5.28;;;2.60;;
12650;SDS011;6390;49.400;8.670;2022-10-10T08:01:04;4.60;;;2.70;;
12650;SDS011;6390;49.400;8.670;2022-10-10T08:03:34;3.28;;;2.72;;
12650;SDS011;6390;49.400;8.670;2022-10-10T08:06:04;7.47;;;3.53;;
12650;SDS011;6390;49.400;8.670;2022-10-10T08:08:36;8.13;;;3.45;;
12650;SDS011;6390;49.400;8.670;2022-10-10T08:11:03;3.88;;;3.40;;
12650;SDS011;6390;49.400;8.670;2022-10-10T08:13:31;7.28;;;3.60;;
12650;SDS011;6390;49.400;8.670;2022-10-10T08:15:57;5.10;;;3.38;;
12650;SDS011;6390;49.400;8.670;2022-10-10T08:18:23;4.07;;;3.05;;
12650;SDS011;6390;49.400;8.670;2022-10-10T08:21:03;5.32;;;3.28;;
12650;SDS011;6390;49.400;8.670;2022-10-10T08:23:32;4.15;;;2.70;;
12650;SDS011;6390;49.400;8.670;2022-10-10T08:25:59;6.50;;;3.17;;
12650;SDS011;6390;49.400;8.670;2022-10-10T08:28:27;5.05;;;3.20;;
12650;SDS011;6390;49.400;8.670;2022-10-10T08:30:54;4.35;;;2.85;;
12650;SDS011;6390;49.400;8.670;2022-10-10T08:33:20;5.38;;;3.22;;
12650;SDS011;6390;49.400;8.670;2022-10-10T08:35:47;3.85;;;2.92;;
12650;SDS011;6390;49.400;8.670;2022-10-10T08:38:13;3.17;;;2.55;;
12650;SDS011;6390;49.400;8.670;2022-10-10T08:40:46;3.75;;;2.90;;
12650;SDS011;6390;49.400;8.670;2022-10-10T08:43:18;3.67;;;2.92;;
12650;SDS011;6390;49.400;8.670;2022-10-10T08:45:54;3.10;;;2.78;;
12650;SDS011;6390;49.400;8.670;2022-10-10T08:48:23;4.13;;;2.60;;
12650;SDS011;6390;49.400;8.670;2022-10-10T08:50:56;5.35;;;2.50;;
12650;SDS011;6390;49.400;8.670;2022-10-10T08:53:28;3.72;;;2.80;;
12650;SDS011;6390;49.400;8.670;2022-10-10T08:56:14;2.80;;;2.42;;
12650;SDS011;6390;49.400;8.670;2022-10-10T08:58:46;3.05;;;2.53;;
12650;SDS011;6390;49.400;8.670;2022-10-10T09:01:21;2.95;;;2.63;;
12650;SDS011;6390;49.400;8.670;2022-10-10T09:03:51;3.63;;;2.50;;
12650;SDS011;6390;49.400;8.670;2022-10-10T09:06:42;3.03;;;2.40;;
12650;SDS011;6390;49.400;8.670;2022-10-10T09:15:48;2.70;;;2.50;;
12650;SDS011;6390;49.400;8.670;2022-10-10T09:21:09;3.38;;;2.10;;
12650;SDS011;6390;49.400;8.670;2022-10-10T09:23:42;2.83;;;2.33;;
12650;SDS011;6390;49.400;8.670;2022-10-10T09:26:50;5.72;;;2.30;;
12650;SDS011;6390;49.400;8.670;2022-10-10T09:32:23;2.65;;;2.15;;
12650;SDS011;6390;49.400;8.670;2022-10-10T09:37:41;2.47;;;2.20;;
12650;SDS011;6390;49.400;8.670;2022-10-10T09:43:14;2.53;;;2.33;;
12650;SDS011;6390;49.400;8.670;2022-10-10T09:45:45;4.22;;;2.03;;
12650;SDS011;6390;49.400;8.670;2022-10-10T09:48:18;2.10;;;1.88;;
12650;SDS011;6390;49.400;8.670;2022-10-10T09:50:48;2.67;;;2.05;;
12650;SDS011;6390;49.400;8.670;2022-10-10T09:53:15;3.13;;;1.92;;
12650;SDS011;6390;49.400;8.670;2022-10-10T09:55:41;2.22;;;2.03;;
12650;SDS011;6390;49.400;8.670;2022-10-10T09:58:14;2.55;;;2.03;;
12650;SDS011;6390;49.400;8.670;2022-10-10T10:04:09;2.10;;;1.90;;
12650;SDS011;6390;49.400;8.670;2022-10-10T10:06:42;3.20;;;2.03;;
12650;SDS011;6390;49.400;8.670;2022-10-10T10:09:17;3.40;;;2.42;;
12650;SDS011;6390;49.400;8.670;2022-10-10T10:11:46;2.45;;;2.08;;
12650;SDS011;6390;49.400;8.670;2022-10-10T10:17:12;3.45;;;2.08;;
12650;SDS011;6390;49.400;8.670;2022-10-10T10:19:44;2.33;;;2.13;;
12650;SDS011;6390;49.400;8.670;2022-10-10T10:28:15;1.98;;;1.77;;
12650;SDS011;6390;49.400;8.670;2022-10-10T10:30:45;2.53;;;1.98;;
12650;SDS011;6390;49.400;8.670;2022-10-10T10:35:55;2.20;;;2.00;;
12650;SDS011;6390;49.400;8.670;2022-10-10T10:38:49;2.05;;;1.80;;
12650;SDS011;6390;49.400;8.670;2022-10-10T10:41:26;3.75;;;2.05;;
12650;SDS011;6390;49.400;8.670;2022-10-10T10:44:01;1.67;;;1.52;;
12650;SDS011;6390;49.400;8.670;2022-10-10T10:46:40;2.88;;;1.77;;
12650;SDS011;6390;49.400;8.670;2022-10-10T10:52:44;2.15;;;1.73;;
12650;SDS011;6390;49.400;8.670;2022-10-10T10:58:58;2.60;;;1.98;;
12650;SDS011;6390;49.400;8.670;2022-10-10T11:01:51;2.22;;;1.80;;
12650;SDS011;6390;49.400;8.670;2022-10-10T11:07:28;3.47;;;2.08;;
12650;SDS011;6390;49.400;8.670;2022-10-10T11:10:20;2.55;;;1.70;;
12650;SDS011;6390;49.400;8.670;2022-10-10T11:16:04;2.80;;;1.70;;
12650;SDS011;6390;49.400;8.670;2022-10-10T11:18:40;2.65;;;1.70;;
12650;SDS011;6390;49.400;8.670;2022-10-10T11:21:15;5.38;;;2.38;;
12650;SDS011;6390;49.400;8.670;2022-10-10T11:23:44;2.55;;;1.70;;
12650;SDS011;6390;49.400;8.670;2022-10-10T11:26:30;2.40;;;2.05;;
12650;SDS011;6390;49.400;8.670;2022-10-10T11:29:11;2.28;;;1.70;;
12650;SDS011;6390;49.400;8.670;2022-10-10T11:31:56;2.00;;;1.70;;
12650;SDS011;6390;49.400;8.670;2022-10-10T11:34:32;1.80;;;1.70;;
12650;SDS011;6390;49.400;8.670;2022-10-10T11:37:04;2.03;;;1.48;;
12650;SDS011;6390;49.400;8.670;2022-10-10T11:45:18;2.70;;;1.85;;
12650;SDS011;6390;49.400;8.670;2022-10-10T11:47:51;2.47;;;1.70;;
12650;SDS011;6390;49.400;8.670;2022-10-10T11:50:33;4.07;;;1.80;;
12650;SDS011;6390;49.400;8.670;2022-10-10T11:53:04;2.38;;;1.70;;
12650;SDS011;6390;49.400;8.670;2022-10-10T11:55:37;2.15;;;1.80;;
12650;SDS011;6390;49.400;8.670;2022-10-10T12:00:52;2.30;;;1.60;;
12650;SDS011;6390;49.400;8.670;2022-10-10T12:03:25;2.88;;;1.92;;
12650;SDS011;6390;49.400;8.670;2022-10-10T12:05:54;2.55;;;1.70;;
12650;SDS011;6390;49.400;8.670;2022-10-10T12:11:04;1.85;;;1.58;;
12650;SDS011;6390;49.400;8.670;2022-10-10T12:13:40;2.15;;;1.65;;
12650;SDS011;6390;49.400;8.670;2022-10-10T12:16:14;3.00;;;1.77;;
12650;SDS011;6390;49.400;8.670;2022-10-10T12:21:29;1.70;;;1.60;;
12650;SDS011;6390;49.400;8.670;2022-10-10T12:34:39;1.70;;;1.60;;
12650;SDS011;6390;49.400;8.670;2022-10-10T12:37:28;4.65;;;1.63;;
12650;SDS011;6390;49.400;8.670;2022-10-10T12:45:01;2.28;;;1.60;;
12650;SDS011;6390;49.400;8.670;2022-10-10T12:47:33;2.90;;;1.85;;
12650;SDS011;6390;49.400;8.670;2022-10-10T12:50:17;2.53;;;1.52;;
12650;SDS011;6390;49.400;8.670;2022-10-10T12:52:48;1.65;;;1.40;;
12650;SDS011;6390;49.400;8.670;2022-10-10T12:55:28;2.65;;;1.80;;
12650;SDS011;6390;49.400;8.670;2022-10-10T12:58:16;1.85;;;1.50;;
12650;SDS011;6390;49.400;8.670;2022-10-10T13:00:48;3.45;;;2.00;;
12650;SDS011;6390;49.400;8.670;2022-10-10T13:09:20;2.00;;;1.60;;
12650;SDS011;6390;49.400;8.670;2022-10-10T13:11:53;2.13;;;1.73;;
12650;SDS011;6390;49.400;8.670;2022-10-10T13:14:25;2.22;;;1.50;;
12650;SDS011;6390;49.400;8.670;2022-10-10T13:17:18;3.03;;;1.67;;
12650;SDS011;6390;49.400;8.670;2022-10-10T13:19:52;2.65;;;1.83;;
12650;SDS011;6390;49.400;8.670;2022-10-10T13:22:20;4.00;;;1.70;;
12650;SDS011;6390;49.400;8.670;2022-10-10T13:24:47;1.80;;;1.48;;
12650;SDS011;6390;49.400;8.670;2022-10-10T13:27:15;3.42;;;1.80;;
12650;SDS011;6390;49.400;8.670;2022-10-10T13:29:51;1.65;;;1.27;;
12650;SDS011;6390;49.400;8.670;2022-10-10T13:32:20;2.05;;;1.60;;
12650;SDS011;6390;49.400;8.670;2022-10-10T13:34:59;3.45;;;1.50;;
12650;SDS011;6390;49.400;8.670;2022-10-10T13:37:30;3.58;;;1.63;;
12650;SDS011;6390;49.400;8.670;2022-10-10T13:39:57;2.08;;;1.50;;
12650;SDS011;6390;49.400;8.670;2022-10-10T13:45:01;4.90;;;1.50;;
12650;SDS011;6390;49.400;8.670;2022-10-10T13:47:56;1.85;;;1.48;;
12650;SDS011;6390;49.400;8.670;2022-10-10T13:58:42;3.33;;;1.63;;
12650;SDS011;6390;49.400;8.670;2022-10-10T14:04:35;2.92;;;1.50;;
12650;SDS011;6390;49.400;8.670;2022-10-10T14:07:18;4.03;;;1.52;;
12650;SDS011;6390;49.400;8.670;2022-10-10T14:09:51;2.15;;;1.60;;
12650;SDS011;6390;49.400;8.670;2022-10-10T14:12:25;2.05;;;1.50;;
12650;SDS011;6390;49.400;8.670;2022-10-10T14:14:57;1.63;;;1.50;;
12650;SDS011;6390;49.400;8.670;2022-10-10T14:17:25;3.60;;;1.40;;
12650;SDS011;6390;49.400;8.670;2022-10-10T14:19:52;2.92;;;1.80;;
12650;SDS011;6390;49.400;8.670;2022-10-10T14:22:19;1.88;;;1.45;;
12650;SDS011;6390;49.400;8.670;2022-10-10T14:24:46;3.40;;;1.70;;
12650;SDS011;6390;49.400;8.670;2022-10-10T14:27:14;3.40;;;1.70;;
12650;SDS011;6390;49.400;8.670;2022-10-10T14:29:50;1.50;;;1.23;;
12650;SDS011;6390;49.400;8.670;2022-10-10T14:32:17;3.97;;;1.38;;
12650;SDS011;6390;49.400;8.670;2022-10-10T14:34:44;1.73;;;1.50;;
12650;SDS011;6390;49.400;8.670;2022-10-10T14:37:17;2.85;;;1.52;;
12650;SDS011;6390;49.400;8.670;2022-10-10T14:40:02;2.15;;;1.60;;
12650;SDS011;6390;49.400;8.670;2022-10-10T14:42:51;2.65;;;1.52;;
12650;SDS011;6390;49.400;8.670;2022-10-10T14:45:17;3.22;;;1.60;;
12650;SDS011;6390;49.400;8.670;2022-10-10T14:47:43;2.53;;;1.50;;
12650;SDS011;6390;49.400;8.670;2022-10-10T14:50:13;2.85;;;1.40;;
12650;SDS011;6390;49.400;8.670;2022-10-10T14:52:44;3.28;;;1.40;;
12650;SDS011;6390;49.400;8.670;2022-10-10T14:55:19;1.85;;;1.63;;
12650;SDS011;6390;49.400;8.670;2022-10-10T14:57:48;4.40;;;1.60;;
12650;SDS011;6390;49.400;8.670;2022-10-10T15:00:18;1.63;;;1.50;;
12650;SDS011;6390;49.400;8.670;2022-10-10T15:02:47;4.35;;;1.35;;
12650;SDS011;6390;49.400;8.670;2022-10-10T15:05:16;3.53;;;1.60;;
12650;SDS011;6390;49.400;8.670;2022-10-10T15:07:43;4.93;;;1.50;;
12650;SDS011;6390;49.400;8.670;2022-10-10T15:10:20;3.28;;;2.00;;
12650;SDS011;6390;49.400;8.670;2022-10-10T15:12:53;2.88;;;1.50;;
12650;SDS011;6390;49.400;8.670;2022-10-10T15:15:37;3.15;;;1.60;;
12650;SDS011;6390;49.400;8.670;2022-10-10T15:18:12;3.72;;;1.48;;
12650;SDS011;6390;49.400;8.670;2022-10-10T15:20:57;4.93;;;1.60;;
12650;SDS011;6390;49.400;8.670;2022-10-10T15:23:55;3.00;;;1.48;;
12650;SDS011;6390;49.400;8.670;2022-10-10T15:26:31;4.50;;;1.90;;
12650;SDS011;6390;49.400;8.670;2022-10-10T15:29:39;4.38;;;1.50;;
12650;SDS011;6390;49.400;8.670;2022-10-10T15:33:11;3.42;;;1.70;;
12650;SDS011;6390;49.400;8.670;2022-10-10T15:36:01;2.63;;;1.50;;
12650;SDS011;6390;49.400;8.670;2022-10-10T15:38:34;2.47;;;1.55;;
12650;SDS011;6390;49.400;8.670;2022-10-10T15:41:02;3.25;;;1.35;;
12650;SDS011;6390;49.400;8.670;2022-10-10T15:43:49;1.60;;;1.27;;
12650;SDS011;6390;49.400;8.670;2022-10-10T15:46:20;3.13;;;1.42;;
12650;SDS011;6390;49.400;8.670;2022-10-10T15:48:49;2.65;;;1.60;;
12650;SDS011;6390;49.400;8.670;2022-10-10T15:51:16;2.88;;;1.48;;
12650;SDS011;6390;49.400;8.670;2022-10-10T15:53:42;3.85;;;1.50;;
12650;SDS011;6390;49.400;8.670;2022-10-10T15:56:12;5.55;;;1.60;;
12650;SDS011;6390;49.400;8.670;2022-10-10T15:58:40;2.42;;;1.45;;
12650;SDS011;6390;49.400;8.670;2022-10-10T16:01:11;3.10;;;1.55;;
12650;SDS011;6390;49.400;8.670;2022-10-10T16:03:42;3.15;;;1.73;;
12650;SDS011;6390;49.400;8.670;2022-10-10T16:06:09;3.42;;;1.50;;
12650;SDS011;6390;49.400;8.670;2022-10-10T16:08:36;2.67;;;1.50;;
12650;SDS011;6390;49.400;8.670;2022-10-10T16:11:10;3.25;;;1.48;;
12650;SDS011;6390;49.400;8.670;2022-10-10T16:13:39;3.03;;;1.52;;
12650;SDS011;6390;49.400;8.670;2022-10-10T16:16:07;4.07;;;1.60;;
12650;SDS011;6390;49.400;8.670;2022-10-10T16:18:36;3.10;;;1.48;;
12650;SDS011;6390;49.400;8.670;2022-10-10T16:21:09;4.57;;;1.60;;
12650;SDS011;6390;49.400;8.670;2022-10-10T16:23:42;3.22;;;1.45;;
12650;SDS011;6390;49.400;8.670;2022-10-10T16:26:13;3.63;;;1.35;;
12650;SDS011;6390;49.400;8.670;2022-10-10T16:28:45;1.77;;;1.35;;
12650;SDS011;6390;49.400;8.670;2022-10-10T16:31:13;3.10;;;1.58;;
12650;SDS011;6390;49.400;8.670;2022-10-10T16:33:41;3.67;;;1.70;;
12650;SDS011;6390;49.400;8.670;2022-10-10T16:36:08;3.30;;;1.73;;
12650;SDS011;6390;49.400;8.670;2022-10-10T16:38:38;2.80;;;1.70;;
12650;SDS011;6390;49.400;8.670;2022-10-10T16:41:05;2.95;;;1.58;;
12650;SDS011;6390;49.400;8.670;2022-10-10T16:43:37;1.52;;;1.35;;
12650;SDS011;6390;49.400;8.670;2022-10-10T16:46:05;4.85;;;1.70;;
12650;SDS011;6390;49.400;8.670;2022-10-10T16:48:33;5.90;;;2.08;;
12650;SDS011;6390;49.400;8.670;2022-10-10T16:51:02;6.18;;;1.70;;
12650;SDS011;6390;49.400;8.670;2022-10-10T16:53:30;4.60;;;2.05;;
12650;SDS011;6390;49.400;8.670;2022-10-10T16:56:00;3.13;;;1.70;;
12650;SDS011;6390;49.400;8.670;2022-10-10T16:58:29;3.20;;;1.85;;
12650;SDS011;6390;49.400;8.670;2022-10-10T17:00:55;4.07;;;1.42;;
12650;SDS011;6390;49.400;8.670;2022-10-10T17:03:21;3.67;;;1.77;;
12650;SDS011;6390;49.400;8.670;2022-10-10T17:05:49;3.45;;;1.42;;
12650;SDS011;6390;49.400;8.670;2022-10-10T17:08:29;2.10;;;1.45;;
12650;SDS011;6390;49.400;8.670;2022-10-10T17:10:56;2.15;;;1.60;;
12650;SDS011;6390;49.400;8.670;2022-10-10T17:13:22;4.72;;;1.55;;
12650;SDS011;6390;49.400;8.670;2022-10-10T17:15:49;3.05;;;1.85;;